sensor_id;sensor_type;location;lat;lon;timestamp;P1;durP1;ratioP1;P2;durP2;ratioP2
9689;SDS011;4884;42.614;23.340;2022-12-10T00:02:18;20.13;;;9.47;;
9689;SDS011;4884;42.614;23.340;2022-12-10T00:04:44;14.57;;;8.30;;
9689;SDS011;4884;42.614;23.340;2022-12-10T00:07:09;15.97;;;9.13;;
9689;SDS011;4884;42.614;23.340;2022-12-10T00:09:34;21.43;;;10.73;;
9689;SDS011;4884;42.614;23.340;2022-12-10T00:12:00;16.40;;;9.83;;
9689;SDS011;4884;42.614;23.340;2022-12-10T00:14:25;10.57;;;9.07;;
9689;SDS011;4884;42.614;23.340;2022-12-10T00:16:50;15.67;;;8.80;;
9689;SDS011;4884;42.614;23.340;2022-12-10T00:19:16;12.93;;;9.97;;
9689;SDS011;4884;42.614;23.340;2022-12-10T00:21:41;12.20;;;7.90;;
9689;SDS011;4884;42.614;23.340;2022-12-10T00:24:07;12.37;;;7.90;;
9689;SDS011;4884;42.614;23.340;2022-12-10T00:26:35;12.87;;;8.10;;
9689;SDS011;4884;42.614;23.340;2022-12-10T00:29:02;12.57;;;8.77;;
9689;SDS011;4884;42.614;23.340;2022-12-10T00:31:29;19.73;;;9.33;;
9689;SDS011;4884;42.614;23.340;2022-12-10T00:33:58;11.63;;;7.73;;
9689;SDS011;4884;42.614;23.340;2022-12-10T00:36:29;17.77;;;9.87;;
9689;SDS011;4884;42.614;23.340;2022-12-10T00:38:56;14.93;;;9.20;;
9689;SDS011;4884;42.614;23.340;2022-12-10T00:41:22;14.60;;;9.33;;
9689;SDS011;4884;42.614;23.340;2022-12-10T00:43:47;12.30;;;9.60;;
9689;SDS011;4884;42.614;23.340;2022-12-10T00:46:13;13.17;;;8.90;;
9689;SDS011;4884;42.614;23.340;2022-12-10T00:48:40;22.20;;;10.67;;
9689;SDS011;4884;42.614;23.340;2022-12-10T00:51:07;12.87;;;9.50;;
9689;SDS011;4884;42.614;23.340;2022-12-10T00:53:35;15.97;;;12.13;;
9689;SDS011;4884;42.614;23.340;2022-12-10T00:56:01;20.83;;;10.90;;
9689;SDS011;4884;42.614;23.340;2022-12-10T00:58:29;15.47;;;10.17;;
9689;SDS011;4884;42.614;23.340;2022-12-10T01:01:12;19.60;;;12.50;;
9689;SDS011;4884;42.614;23.340;2022-12-10T01:03:44;21.67;;;9.80;;
9689;SDS011;4884;42.614;23.340;2022-12-10T01:06:20;16.33;;;9.00;;
9689;SDS011;4884;42.614;23.340;2022-12-10T01:08:51;15.43;;;10.20;;
9689;SDS011;4884;42.614;23.340;2022-12-10T01:11:18;15.60;;;9.47;;
9689;SDS011;4884;42.614;23.340;2022-12-10T01:13:44;18.53;;;9.83;;
9689;SDS011;4884;42.614;23.340;2022-12-10T01:16:11;12.00;;;8.00;;
9689;SDS011;4884;42.614;23.340;2022-12-10T01:18:38;13.07;;;9.10;;
9689;SDS011;4884;42.614;23.340;2022-12-10T01:21:05;12.57;;;10.10;;
9689;SDS011;4884;42.614;23.340;2022-12-10T01:23:33;16.27;;;10.00;;
9689;SDS011;4884;42.614;23.340;2022-12-10T01:26:00;15.70;;;10.80;;
9689;SDS011;4884;42.614;23.340;2022-12-10T01:28:27;14.57;;;8.80;;
9689;SDS011;4884;42.614;23.340;2022-12-10T01:30:54;16.17;;;10.07;;
9689;SDS011;4884;42.614;23.340;2022-12-10T01:33:19;15.23;;;7.73;;
9689;SDS011;4884;42.614;23.340;2022-12-10T01:35:45;11.53;;;9.07;;
9689;SDS011;4884;42.614;23.340;2022-12-10T01:38:10;14.43;;;9.20;;
9689;SDS011;4884;42.614;23.340;2022-12-10T01:40:38;14.73;;;8.10;;
9689;SDS011;4884;42.614;23.340;2022-12-10T01:43:04;14.30;;;8.80;;
9689;SDS011;4884;42.614;23.340;2022-12-10T01:45:29;13.30;;;8.60;;
9689;SDS011;4884;42.614;23.340;2022-12-10T01:47:55;13.27;;;8.90;;
9689;SDS011;4884;42.614;23.340;2022-12-10T01:50:20;11.63;;;7.87;;
9689;SDS011;4884;42.614;23.340;2022-12-10T01:52:46;15.97;;;8.77;;
9689;SDS011;4884;42.614;23.340;2022-12-10T01:58:14;16.13;;;8.60;;
9689;SDS011;4884;42.614;23.340;2022-12-10T02:03:35;15.33;;;8.10;;
9689;SDS011;4884;42.614;23.340;2022-12-10T02:06:12;15.37;;;8.50;;
9689;SDS011;4884;42.614;23.340;2022-12-10T02:09:00;15.23;;;9.07;;
9689;SDS011;4884;42.614;23.340;2022-12-10T02:11:37;17.10;;;9.70;;
9689;SDS011;4884;42.614;23.340;2022-12-10T02:14:11;12.87;;;8.93;;
9689;SDS011;4884;42.614;23.340;2022-12-10T02:16:41;17.23;;;8.93;;
9689;SDS011;4884;42.614;23.340;2022-12-10T02:19:21;18.33;;;9.20;;
9689;SDS011;4884;42.614;23.340;2022-12-10T02:21:51;18.03;;;8.87;;
9689;SDS011;4884;42.614;23.340;2022-12-10T02:24:20;18.83;;;9.17;;
9689;SDS011;4884;42.614;23.340;2022-12-10T02:29:36;16.70;;;8.60;;
9689;SDS011;4884;42.614;23.340;2022-12-10T02:34:41;15.53;;;8.80;;
9689;SDS011;4884;42.614;23.340;2022-12-10T02:37:16;14.43;;;9.47;;
9689;SDS011;4884;42.614;23.340;2022-12-10T02:39:46;16.17;;;10.20;;
9689;SDS011;4884;42.614;23.340;2022-12-10T02:42:13;12.07;;;9.33;;
9689;SDS011;4884;42.614;23.340;2022-12-10T02:44:40;16.57;;;9.57;;
9689;SDS011;4884;42.614;23.340;2022-12-10T02:47:07;16.37;;;9.80;;
9689;SDS011;4884;42.614;23.340;2022-12-10T02:49:33;13.73;;;8.87;;
9689;SDS011;4884;42.614;23.340;2022-12-10T02:51:59;14.30;;;7.77;;
9689;SDS011;4884;42.614;23.340;2022-12-10T02:57:05;13.47;;;8.47;;
9689;SDS011;4884;42.614;23.340;2022-12-10T02:59:42;14.10;;;9.03;;
9689;SDS011;4884;42.614;23.340;2022-12-10T03:07:57;13.47;;;6.90;;
9689;SDS011;4884;42.614;23.340;2022-12-10T03:13:20;16.93;;;5.97;;
9689;SDS011;4884;42.614;23.340;2022-12-10T03:15:47;13.87;;;7.00;;
9689;SDS011;4884;42.614;23.340;2022-12-10T03:18:13;12.73;;;6.70;;
9689;SDS011;4884;42.614;23.340;2022-12-10T03:20:40;13.33;;;6.47;;
9689;SDS011;4884;42.614;23.340;2022-12-10T03:23:09;8.23;;;6.13;;
9689;SDS011;4884;42.614;23.340;2022-12-10T03:25:42;11.20;;;6.87;;
9689;SDS011;4884;42.614;23.340;2022-12-10T03:28:08;10.43;;;7.23;;
9689;SDS011;4884;42.614;23.340;2022-12-10T03:30:34;10.70;;;7.00;;
9689;SDS011;4884;42.614;23.340;2022-12-10T03:33:01;12.93;;;6.60;;
9689;SDS011;4884;42.614;23.340;2022-12-10T03:35:27;11.63;;;6.60;;
9689;SDS011;4884;42.614;23.340;2022-12-10T03:37:52;10.77;;;7.83;;
9689;SDS011;4884;42.614;23.340;2022-12-10T03:40:20;7.93;;;4.20;;
9689;SDS011;4884;42.614;23.340;2022-12-10T03:42:47;7.53;;;5.97;;
9689;SDS011;4884;42.614;23.340;2022-12-10T03:45:13;4.97;;;4.10;;
9689;SDS011;4884;42.614;23.340;2022-12-10T03:47:39;9.43;;;4.67;;
9689;SDS011;4884;42.614;23.340;2022-12-10T03:50:05;5.60;;;4.23;;
9689;SDS011;4884;42.614;23.340;2022-12-10T03:52:31;10.57;;;4.73;;
9689;SDS011;4884;42.614;23.340;2022-12-10T03:54:56;3.17;;;2.70;;
9689;SDS011;4884;42.614;23.340;2022-12-10T03:57:22;6.33;;;3.27;;
9689;SDS011;4884;42.614;23.340;2022-12-10T03:59:47;6.37;;;4.87;;
9689;SDS011;4884;42.614;23.340;2022-12-10T04:02:12;11.30;;;5.60;;
9689;SDS011;4884;42.614;23.340;2022-12-10T04:04:38;11.57;;;6.03;;
9689;SDS011;4884;42.614;23.340;2022-12-10T04:07:03;8.90;;;6.00;;
9689;SDS011;4884;42.614;23.340;2022-12-10T04:09:28;7.77;;;6.87;;
9689;SDS011;4884;42.614;23.340;2022-12-10T04:11:57;12.00;;;7.57;;
9689;SDS011;4884;42.614;23.340;2022-12-10T04:14:23;13.33;;;7.30;;
9689;SDS011;4884;42.614;23.340;2022-12-10T04:17:07;11.97;;;7.80;;
9689;SDS011;4884;42.614;23.340;2022-12-10T04:19:33;13.60;;;7.13;;
9689;SDS011;4884;42.614;23.340;2022-12-10T04:21:58;13.67;;;7.83;;
9689;SDS011;4884;42.614;23.340;2022-12-10T04:24:42;8.60;;;6.53;;
9689;SDS011;4884;42.614;23.340;2022-12-10T04:27:31;11.73;;;5.77;;
9689;SDS011;4884;42.614;23.340;2022-12-10T04:29:58;10.00;;;6.37;;
9689;SDS011;4884;42.614;23.340;2022-12-10T04:32:25;11.10;;;6.60;;
9689;SDS011;4884;42.614;23.340;2022-12-10T04:34:51;10.43;;;7.17;;
9689;SDS011;4884;42.614;23.340;2022-12-10T04:37:17;13.00;;;7.33;;
9689;SDS011;4884;42.614;23.340;2022-12-10T04:39:43;14.57;;;6.77;;
9689;SDS011;4884;42.614;23.340;2022-12-10T04:42:08;11.90;;;6.70;;
9689;SDS011;4884;42.614;23.340;2022-12-10T04:44:34;13.37;;;7.80;;
9689;SDS011;4884;42.614;23.340;2022-12-10T04:46:59;10.30;;;7.27;;
9689;SDS011;4884;42.614;23.340;2022-12-10T04:49:25;9.10;;;6.53;;
9689;SDS011;4884;42.614;23.340;2022-12-10T04:51:51;13.23;;;7.50;;
9689;SDS011;4884;42.614;23.340;2022-12-10T04:54:17;15.33;;;7.70;;
9689;SDS011;4884;42.614;23.340;2022-12-10T04:56:43;10.90;;;6.27;;
9689;SDS011;4884;42.614;23.340;2022-12-10T04:59:09;27.77;;;13.50;;
9689;SDS011;4884;42.614;23.340;2022-12-10T05:01:35;34.37;;;18.57;;
9689;SDS011;4884;42.614;23.340;2022-12-10T05:04:02;36.73;;;17.80;;
9689;SDS011;4884;42.614;23.340;2022-12-10T05:06:29;28.97;;;18.23;;
9689;SDS011;4884;42.614;23.340;2022-12-10T05:08:55;17.40;;;9.80;;
9689;SDS011;4884;42.614;23.340;2022-12-10T05:11:22;13.07;;;8.43;;
9689;SDS011;4884;42.614;23.340;2022-12-10T05:13:48;13.37;;;8.87;;
9689;SDS011;4884;42.614;23.340;2022-12-10T05:16:15;9.77;;;8.03;;
9689;SDS011;4884;42.614;23.340;2022-12-10T05:18:42;11.60;;;7.70;;
9689;SDS011;4884;42.614;23.340;2022-12-10T05:21:10;18.67;;;12.33;;
9689;SDS011;4884;42.614;23.340;2022-12-10T05:23:37;12.90;;;6.90;;
9689;SDS011;4884;42.614;23.340;2022-12-10T05:26:08;11.13;;;6.83;;
9689;SDS011;4884;42.614;23.340;2022-12-10T05:28:39;7.50;;;6.53;;
9689;SDS011;4884;42.614;23.340;2022-12-10T05:31:13;13.53;;;8.33;;
9689;SDS011;4884;42.614;23.340;2022-12-10T05:33:44;14.97;;;8.43;;
9689;SDS011;4884;42.614;23.340;2022-12-10T05:36:10;10.80;;;6.97;;
9689;SDS011;4884;42.614;23.340;2022-12-10T05:38:38;11.77;;;7.47;;
9689;SDS011;4884;42.614;23.340;2022-12-10T05:41:08;8.77;;;6.57;;
9689;SDS011;4884;42.614;23.340;2022-12-10T05:43:36;7.90;;;7.10;;
9689;SDS011;4884;42.614;23.340;2022-12-10T05:46:03;12.07;;;8.23;;
9689;SDS011;4884;42.614;23.340;2022-12-10T05:48:29;8.83;;;7.80;;
9689;SDS011;4884;42.614;23.340;2022-12-10T05:50:55;10.40;;;8.90;;
9689;SDS011;4884;42.614;23.340;2022-12-10T05:53:21;15.73;;;9.83;;
9689;SDS011;4884;42.614;23.340;2022-12-10T05:55:47;20.57;;;13.50;;
9689;SDS011;4884;42.614;23.340;2022-12-10T05:58:12;19.07;;;11.93;;
9689;SDS011;4884;42.614;23.340;2022-12-10T06:00:38;20.10;;;12.90;;
9689;SDS011;4884;42.614;23.340;2022-12-10T06:03:04;22.27;;;14.07;;
9689;SDS011;4884;42.614;23.340;2022-12-10T06:05:35;22.17;;;13.20;;
9689;SDS011;4884;42.614;23.340;2022-12-10T06:08:01;16.93;;;12.17;;
9689;SDS011;4884;42.614;23.340;2022-12-10T06:10:26;17.97;;;12.13;;
9689;SDS011;4884;42.614;23.340;2022-12-10T06:12:52;22.60;;;13.30;;
9689;SDS011;4884;42.614;23.340;2022-12-10T06:15:17;22.83;;;12.30;;
9689;SDS011;4884;42.614;23.340;2022-12-10T06:17:42;18.67;;;12.23;;
9689;SDS011;4884;42.614;23.340;2022-12-10T06:20:08;15.20;;;10.43;;
9689;SDS011;4884;42.614;23.340;2022-12-10T06:22:34;15.97;;;10.83;;
9689;SDS011;4884;42.614;23.340;2022-12-10T06:24:59;17.47;;;11.60;;
9689;SDS011;4884;42.614;23.340;2022-12-10T06:27:24;26.83;;;14.83;;
9689;SDS011;4884;42.614;23.340;2022-12-10T06:29:50;19.53;;;14.10;;
9689;SDS011;4884;42.614;23.340;2022-12-10T06:32:15;17.93;;;10.97;;
9689;SDS011;4884;42.614;23.340;2022-12-10T06:34:41;14.43;;;9.17;;
9689;SDS011;4884;42.614;23.340;2022-12-10T06:37:06;16.27;;;10.07;;
9689;SDS011;4884;42.614;23.340;2022-12-10T06:39:31;21.47;;;15.40;;
9689;SDS011;4884;42.614;23.340;2022-12-10T06:41:57;23.07;;;15.40;;
9689;SDS011;4884;42.614;23.340;2022-12-10T06:44:22;21.47;;;13.53;;
9689;SDS011;4884;42.614;23.340;2022-12-10T06:46:47;18.83;;;11.83;;
9689;SDS011;4884;42.614;23.340;2022-12-10T06:49:13;22.70;;;14.43;;
9689;SDS011;4884;42.614;23.340;2022-12-10T06:51:38;22.97;;;15.27;;
9689;SDS011;4884;42.614;23.340;2022-12-10T06:54:04;22.60;;;13.33;;
9689;SDS011;4884;42.614;23.340;2022-12-10T06:56:29;36.77;;;20.50;;
9689;SDS011;4884;42.614;23.340;2022-12-10T06:58:55;23.33;;;14.53;;
9689;SDS011;4884;42.614;23.340;2022-12-10T07:01:21;32.50;;;19.73;;
9689;SDS011;4884;42.614;23.340;2022-12-10T07:03:54;46.27;;;27.77;;
9689;SDS011;4884;42.614;23.340;2022-12-10T07:06:21;37.20;;;22.97;;
9689;SDS011;4884;42.614;23.340;2022-12-10T07:08:47;40.67;;;21.30;;
9689;SDS011;4884;42.614;23.340;2022-12-10T07:11:13;25.03;;;16.37;;
9689;SDS011;4884;42.614;23.340;2022-12-10T07:13:40;27.53;;;16.83;;
9689;SDS011;4884;42.614;23.340;2022-12-10T07:16:15;46.27;;;29.50;;
9689;SDS011;4884;42.614;23.340;2022-12-10T07:18:42;32.10;;;22.10;;
9689;SDS011;4884;42.614;23.340;2022-12-10T07:21:27;42.87;;;25.37;;
9689;SDS011;4884;42.614;23.340;2022-12-10T07:23:53;34.67;;;23.73;;
9689;SDS011;4884;42.614;23.340;2022-12-10T07:26:21;27.80;;;19.13;;
9689;SDS011;4884;42.614;23.340;2022-12-10T07:28:46;29.13;;;21.03;;
9689;SDS011;4884;42.614;23.340;2022-12-10T07:31:12;25.17;;;19.20;;
9689;SDS011;4884;42.614;23.340;2022-12-10T07:33:37;30.77;;;18.47;;
9689;SDS011;4884;42.614;23.340;2022-12-10T07:36:06;42.70;;;25.50;;
9689;SDS011;4884;42.614;23.340;2022-12-10T07:38:33;23.60;;;18.27;;
9689;SDS011;4884;42.614;23.340;2022-12-10T07:41:02;12.80;;;9.43;;
9689;SDS011;4884;42.614;23.340;2022-12-10T07:43:32;9.80;;;7.57;;
9689;SDS011;4884;42.614;23.340;2022-12-10T07:46:03;34.83;;;19.60;;
9689;SDS011;4884;42.614;23.340;2022-12-10T07:48:30;31.47;;;15.93;;
9689;SDS011;4884;42.614;23.340;2022-12-10T07:50:56;24.17;;;16.13;;
9689;SDS011;4884;42.614;23.340;2022-12-10T07:53:22;24.93;;;14.70;;
9689;SDS011;4884;42.614;23.340;2022-12-10T07:55:48;22.37;;;14.27;;
9689;SDS011;4884;42.614;23.340;2022-12-10T07:58:13;28.27;;;15.27;;
9689;SDS011;4884;42.614;23.340;2022-12-10T08:00:38;49.50;;;28.73;;
9689;SDS011;4884;42.614;23.340;2022-12-10T08:03:03;26.27;;;16.17;;
9689;SDS011;4884;42.614;23.340;2022-12-10T08:05:29;19.70;;;13.57;;
9689;SDS011;4884;42.614;23.340;2022-12-10T08:07:54;18.70;;;14.03;;
9689;SDS011;4884;42.614;23.340;2022-12-10T08:10:20;18.77;;;11.87;;
9689;SDS011;4884;42.614;23.340;2022-12-10T08:12:45;16.00;;;11.40;;
9689;SDS011;4884;42.614;23.340;2022-12-10T08:15:10;19.60;;;14.10;;
9689;SDS011;4884;42.614;23.340;2022-12-10T08:17:36;30.23;;;13.33;;
9689;SDS011;4884;42.614;23.340;2022-12-10T08:20:01;17.80;;;12.33;;
9689;SDS011;4884;42.614;23.340;2022-12-10T08:22:26;26.93;;;20.23;;
9689;SDS011;4884;42.614;23.340;2022-12-10T08:24:52;22.50;;;16.13;;
9689;SDS011;4884;42.614;23.340;2022-12-10T08:27:17;17.87;;;12.53;;
9689;SDS011;4884;42.614;23.340;2022-12-10T08:29:42;43.90;;;29.07;;
9689;SDS011;4884;42.614;23.340;2022-12-10T08:32:08;137.20;;;108.90;;
9689;SDS011;4884;42.614;23.340;2022-12-10T08:34:33;45.27;;;30.70;;
9689;SDS011;4884;42.614;23.340;2022-12-10T08:36:58;22.80;;;15.53;;
9689;SDS011;4884;42.614;23.340;2022-12-10T08:39:24;18.93;;;12.23;;
9689;SDS011;4884;42.614;23.340;2022-12-10T08:41:49;18.10;;;12.83;;
9689;SDS011;4884;42.614;23.340;2022-12-10T08:44:14;10.90;;;9.30;;
9689;SDS011;4884;42.614;23.340;2022-12-10T08:46:40;10.30;;;8.50;;
9689;SDS011;4884;42.614;23.340;2022-12-10T08:49:05;10.33;;;6.93;;
9689;SDS011;4884;42.614;23.340;2022-12-10T08:51:32;11.93;;;8.67;;
9689;SDS011;4884;42.614;23.340;2022-12-10T08:53:57;15.90;;;10.23;;
9689;SDS011;4884;42.614;23.340;2022-12-10T08:56:23;11.87;;;9.63;;
9689;SDS011;4884;42.614;23.340;2022-12-10T08:58:48;8.63;;;5.60;;
9689;SDS011;4884;42.614;23.340;2022-12-10T09:01:14;8.17;;;5.23;;
9689;SDS011;4884;42.614;23.340;2022-12-10T09:03:41;13.83;;;9.87;;
9689;SDS011;4884;42.614;23.340;2022-12-10T09:06:08;15.13;;;9.03;;
9689;SDS011;4884;42.614;23.340;2022-12-10T09:08:35;14.57;;;7.00;;
9689;SDS011;4884;42.614;23.340;2022-12-10T09:11:11;9.20;;;5.80;;
9689;SDS011;4884;42.614;23.340;2022-12-10T09:13:38;8.37;;;4.87;;
9689;SDS011;4884;42.614;23.340;2022-12-10T09:16:04;68.80;;;42.83;;
9689;SDS011;4884;42.614;23.340;2022-12-10T09:18:30;22.93;;;11.33;;
9689;SDS011;4884;42.614;23.340;2022-12-10T09:20:55;15.57;;;11.03;;
9689;SDS011;4884;42.614;23.340;2022-12-10T09:23:21;16.73;;;8.77;;
9689;SDS011;4884;42.614;23.340;2022-12-10T09:25:46;8.70;;;6.13;;
9689;SDS011;4884;42.614;23.340;2022-12-10T09:28:11;10.73;;;7.70;;
9689;SDS011;4884;42.614;23.340;2022-12-10T09:30:37;15.27;;;10.20;;
9689;SDS011;4884;42.614;23.340;2022-12-10T09:33:02;12.17;;;10.17;;
9689;SDS011;4884;42.614;23.340;2022-12-10T09:35:28;16.93;;;10.80;;
9689;SDS011;4884;42.614;23.340;2022-12-10T09:37:53;13.33;;;8.37;;
9689;SDS011;4884;42.614;23.340;2022-12-10T09:40:22;16.90;;;10.63;;
9689;SDS011;4884;42.614;23.340;2022-12-10T09:43:23;18.10;;;10.67;;
9689;SDS011;4884;42.614;23.340;2022-12-10T09:48:45;25.63;;;12.80;;
9689;SDS011;4884;42.614;23.340;2022-12-10T09:51:26;14.57;;;10.80;;
9689;SDS011;4884;42.614;23.340;2022-12-10T09:53:53;13.70;;;8.43;;
9689;SDS011;4884;42.614;23.340;2022-12-10T09:56:24;16.03;;;9.77;;
9689;SDS011;4884;42.614;23.340;2022-12-10T09:58:52;7.80;;;6.37;;
9689;SDS011;4884;42.614;23.340;2022-12-10T10:01:18;10.03;;;6.90;;
9689;SDS011;4884;42.614;23.340;2022-12-10T10:03:45;10.20;;;5.87;;
9689;SDS011;4884;42.614;23.340;2022-12-10T10:06:13;11.40;;;5.37;;
9689;SDS011;4884;42.614;23.340;2022-12-10T10:08:44;7.37;;;4.83;;
9689;SDS011;4884;42.614;23.340;2022-12-10T10:11:12;5.07;;;3.63;;
9689;SDS011;4884;42.614;23.340;2022-12-10T10:13:43;5.70;;;4.60;;
9689;SDS011;4884;42.614;23.340;2022-12-10T10:16:19;6.07;;;4.50;;
9689;SDS011;4884;42.614;23.340;2022-12-10T10:18:52;6.43;;;4.87;;
9689;SDS011;4884;42.614;23.340;2022-12-10T10:21:53;6.23;;;3.53;;
9689;SDS011;4884;42.614;23.340;2022-12-10T10:24:15;6.67;;;4.00;;
9689;SDS011;4884;42.614;23.340;2022-12-10T10:26:45;7.20;;;5.77;;
9689;SDS011;4884;42.614;23.340;2022-12-10T10:29:15;8.90;;;5.03;;
9689;SDS011;4884;42.614;23.340;2022-12-10T10:31:42;9.93;;;5.77;;
9689;SDS011;4884;42.614;23.340;2022-12-10T10:34:14;6.47;;;5.00;;
9689;SDS011;4884;42.614;23.340;2022-12-10T10:36:42;6.53;;;4.47;;
9689;SDS011;4884;42.614;23.340;2022-12-10T10:41:43;4.70;;;4.00;;
9689;SDS011;4884;42.614;23.340;2022-12-10T10:44:15;6.90;;;4.20;;
9689;SDS011;4884;42.614;23.340;2022-12-10T10:46:42;6.50;;;5.10;;
9689;SDS011;4884;42.614;23.340;2022-12-10T10:49:22;6.80;;;4.57;;
9689;SDS011;4884;42.614;23.340;2022-12-10T10:51:50;4.97;;;3.90;;
9689;SDS011;4884;42.614;23.340;2022-12-10T10:54:33;8.87;;;3.93;;
9689;SDS011;4884;42.614;23.340;2022-12-10T10:57:02;7.23;;;4.47;;
9689;SDS011;4884;42.614;23.340;2022-12-10T10:59:30;10.73;;;6.30;;
9689;SDS011;4884;42.614;23.340;2022-12-10T11:02:04;6.47;;;3.93;;
9689;SDS011;4884;42.614;23.340;2022-12-10T11:04:45;8.03;;;4.43;;
9689;SDS011;4884;42.614;23.340;2022-12-10T11:07:37;9.57;;;6.10;;
9689;SDS011;4884;42.614;23.340;2022-12-10T11:10:20;6.43;;;5.10;;
9689;SDS011;4884;42.614;23.340;2022-12-10T11:13:07;6.37;;;4.27;;
9689;SDS011;4884;42.614;23.340;2022-12-10T11:15:44;9.70;;;4.30;;
9689;SDS011;4884;42.614;23.340;2022-12-10T11:18:26;6.20;;;4.07;;
9689;SDS011;4884;42.614;23.340;2022-12-10T11:20:56;6.23;;;4.83;;
9689;SDS011;4884;42.614;23.340;2022-12-10T11:23:22;8.10;;;4.37;;
9689;SDS011;4884;42.614;23.340;2022-12-10T11:25:55;9.27;;;5.10;;
9689;SDS011;4884;42.614;23.340;2022-12-10T11:36:24;16.53;;;11.30;;
9689;SDS011;4884;42.614;23.340;2022-12-10T11:42:26;13.80;;;12.30;;
9689;SDS011;4884;42.614;23.340;2022-12-10T12:00:19;16.87;;;9.90;;
9689;SDS011;4884;42.614;23.340;2022-12-10T12:02:50;14.83;;;9.77;;
9689;SDS011;4884;42.614;23.340;2022-12-10T12:13:41;16.53;;;10.43;;
9689;SDS011;4884;42.614;23.340;2022-12-10T12:16:33;17.87;;;10.30;;
9689;SDS011;4884;42.614;23.340;2022-12-10T12:19:03;14.53;;;10.40;;
9689;SDS011;4884;42.614;23.340;2022-12-10T12:21:30;14.23;;;11.07;;
9689;SDS011;4884;42.614;23.340;2022-12-10T12:24:01;18.73;;;11.67;;
9689;SDS011;4884;42.614;23.340;2022-12-10T12:31:46;14.63;;;10.40;;
9689;SDS011;4884;42.614;23.340;2022-12-10T12:34:15;17.03;;;10.60;;
9689;SDS011;4884;42.614;23.340;2022-12-10T12:36:44;14.17;;;10.60;;
9689;SDS011;4884;42.614;23.340;2022-12-10T12:39:21;13.93;;;10.53;;
9689;SDS011;4884;42.614;23.340;2022-12-10T12:50:02;16.93;;;11.20;;
9689;SDS011;4884;42.614;23.340;2022-12-10T13:00:48;15.93;;;11.00;;
9689;SDS011;4884;42.614;23.340;2022-12-10T13:05:52;17.50;;;13.07;;
9689;SDS011;4884;42.614;23.340;2022-12-10T13:15:54;14.47;;;10.60;;
9689;SDS011;4884;42.614;23.340;2022-12-10T13:18:22;17.47;;;10.80;;
9689;SDS011;4884;42.614;23.340;2022-12-10T13:23:54;17.13;;;11.07;;
9689;SDS011;4884;42.614;23.340;2022-12-10T13:26:30;14.23;;;9.50;;
9689;SDS011;4884;42.614;23.340;2022-12-10T13:29:10;13.90;;;8.33;;
9689;SDS011;4884;42.614;23.340;2022-12-10T13:32:04;22.10;;;13.10;;
9689;SDS011;4884;42.614;23.340;2022-12-10T13:34:31;27.73;;;17.13;;
9689;SDS011;4884;42.614;23.340;2022-12-10T13:37:04;30.40;;;18.83;;
9689;SDS011;4884;42.614;23.340;2022-12-10T13:39:37;23.77;;;15.07;;
9689;SDS011;4884;42.614;23.340;2022-12-10T13:47:53;48.27;;;28.03;;
9689;SDS011;4884;42.614;23.340;2022-12-10T13:53:45;18.07;;;10.83;;
9689;SDS011;4884;42.614;23.340;2022-12-10T14:01:44;71.73;;;50.07;;
9689;SDS011;4884;42.614;23.340;2022-12-10T14:06:47;20.47;;;15.87;;
9689;SDS011;4884;42.614;23.340;2022-12-10T14:09:18;24.77;;;17.67;;
9689;SDS011;4884;42.614;23.340;2022-12-10T14:11:47;25.77;;;19.50;;
9689;SDS011;4884;42.614;23.340;2022-12-10T14:16:59;43.07;;;27.43;;
9689;SDS011;4884;42.614;23.340;2022-12-10T14:19:26;40.70;;;28.47;;
9689;SDS011;4884;42.614;23.340;2022-12-10T14:21:52;26.07;;;18.23;;
9689;SDS011;4884;42.614;23.340;2022-12-10T14:26:59;189.87;;;125.70;;
9689;SDS011;4884;42.614;23.340;2022-12-10T14:29:34;116.30;;;70.63;;
9689;SDS011;4884;42.614;23.340;2022-12-10T14:31:59;371.40;;;198.63;;
9689;SDS011;4884;42.614;23.340;2022-12-10T14:34:26;139.70;;;89.43;;
9689;SDS011;4884;42.614;23.340;2022-12-10T14:36:57;110.60;;;69.67;;
9689;SDS011;4884;42.614;23.340;2022-12-10T14:41:53;46.43;;;33.37;;
9689;SDS011;4884;42.614;23.340;2022-12-10T14:44:21;44.90;;;27.63;;
9689;SDS011;4884;42.614;23.340;2022-12-10T14:46:48;41.37;;;27.57;;
9689;SDS011;4884;42.614;23.340;2022-12-10T14:49:15;69.47;;;52.40;;
9689;SDS011;4884;42.614;23.340;2022-12-10T14:51:45;58.67;;;44.03;;
9689;SDS011;4884;42.614;23.340;2022-12-10T14:54:43;56.73;;;39.27;;
9689;SDS011;4884;42.614;23.340;2022-12-10T14:57:03;45.80;;;34.30;;
9689;SDS011;4884;42.614;23.340;2022-12-10T15:02:16;43.00;;;32.30;;
9689;SDS011;4884;42.614;23.340;2022-12-10T15:04:51;57.27;;;40.20;;
9689;SDS011;4884;42.614;23.340;2022-12-10T15:07:18;138.13;;;87.33;;
9689;SDS011;4884;42.614;23.340;2022-12-10T15:09:46;73.53;;;49.63;;
9689;SDS011;4884;42.614;23.340;2022-12-10T15:15:03;69.30;;;52.13;;
9689;SDS011;4884;42.614;23.340;2022-12-10T15:17:34;45.77;;;31.90;;
9689;SDS011;4884;42.614;23.340;2022-12-10T15:20:01;147.60;;;119.00;;
9689;SDS011;4884;42.614;23.340;2022-12-10T15:22:26;63.50;;;50.97;;
9689;SDS011;4884;42.614;23.340;2022-12-10T15:24:53;122.53;;;99.17;;
9689;SDS011;4884;42.614;23.340;2022-12-10T15:27:20;78.33;;;68.57;;
9689;SDS011;4884;42.614;23.340;2022-12-10T15:29:49;56.50;;;46.83;;
9689;SDS011;4884;42.614;23.340;2022-12-10T15:32:25;55.07;;;44.00;;
9689;SDS011;4884;42.614;23.340;2022-12-10T15:34:55;49.57;;;38.87;;
9689;SDS011;4884;42.614;23.340;2022-12-10T15:37:24;43.70;;;30.97;;
9689;SDS011;4884;42.614;23.340;2022-12-10T15:39:55;39.10;;;28.73;;
9689;SDS011;4884;42.614;23.340;2022-12-10T15:47:45;37.33;;;27.67;;
9689;SDS011;4884;42.614;23.340;2022-12-10T15:50:11;23.83;;;17.63;;
9689;SDS011;4884;42.614;23.340;2022-12-10T15:52:36;26.27;;;21.10;;
9689;SDS011;4884;42.614;23.340;2022-12-10T15:55:02;36.70;;;30.63;;
9689;SDS011;4884;42.614;23.340;2022-12-10T15:57:29;37.07;;;28.73;;
9689;SDS011;4884;42.614;23.340;2022-12-10T15:59:59;18.87;;;16.13;;
9689;SDS011;4884;42.614;23.340;2022-12-10T16:05:22;79.67;;;52.23;;
9689;SDS011;4884;42.614;23.340;2022-12-10T16:07:54;66.57;;;44.10;;
9689;SDS011;4884;42.614;23.340;2022-12-10T16:10:22;196.90;;;134.53;;
9689;SDS011;4884;42.614;23.340;2022-12-10T16:12:55;79.27;;;55.47;;
9689;SDS011;4884;42.614;23.340;2022-12-10T16:15:23;51.37;;;36.07;;
9689;SDS011;4884;42.614;23.340;2022-12-10T16:17:49;47.07;;;36.80;;
9689;SDS011;4884;42.614;23.340;2022-12-10T16:20:21;70.07;;;53.63;;
9689;SDS011;4884;42.614;23.340;2022-12-10T16:22:51;76.03;;;67.30;;
9689;SDS011;4884;42.614;23.340;2022-12-10T16:25:17;47.57;;;35.63;;
9689;SDS011;4884;42.614;23.340;2022-12-10T16:27:42;63.73;;;50.00;;
9689;SDS011;4884;42.614;23.340;2022-12-10T16:30:11;59.33;;;44.67;;
9689;SDS011;4884;42.614;23.340;2022-12-10T16:32:40;56.30;;;43.43;;
9689;SDS011;4884;42.614;23.340;2022-12-10T16:35:05;67.93;;;60.63;;
9689;SDS011;4884;42.614;23.340;2022-12-10T16:37:31;50.87;;;45.30;;
9689;SDS011;4884;42.614;23.340;2022-12-10T16:39:56;45.37;;;35.37;;
9689;SDS011;4884;42.614;23.340;2022-12-10T16:42:22;39.63;;;27.50;;
9689;SDS011;4884;42.614;23.340;2022-12-10T16:44:47;40.07;;;27.03;;
9689;SDS011;4884;42.614;23.340;2022-12-10T16:47:12;49.83;;;40.53;;
9689;SDS011;4884;42.614;23.340;2022-12-10T16:49:38;33.87;;;25.60;;
9689;SDS011;4884;42.614;23.340;2022-12-10T16:52:03;40.90;;;31.83;;
9689;SDS011;4884;42.614;23.340;2022-12-10T16:54:29;42.73;;;30.87;;
9689;SDS011;4884;42.614;23.340;2022-12-10T16:56:55;65.00;;;55.07;;
9689;SDS011;4884;42.614;23.340;2022-12-10T16:59:20;76.50;;;50.37;;
9689;SDS011;4884;42.614;23.340;2022-12-10T17:01:45;66.13;;;47.87;;
9689;SDS011;4884;42.614;23.340;2022-12-10T17:04:11;83.87;;;55.03;;
9689;SDS011;4884;42.614;23.340;2022-12-10T17:06:36;95.27;;;73.80;;
9689;SDS011;4884;42.614;23.340;2022-12-10T17:09:02;39.00;;;29.63;;